Time;durP1;ratioP1;P1;durP2;ratioP2;P2;SDS_P1;SDS_P2;PMS_P1;PMS_P2;Temp;Humidity;BMP_temperature;BMP_pressure;BME280_temperature;BME280_humidity;BME280_pressure;Samples;Min_cycle;Max_cycle;Signal;HPM_P1;HPM_P2
2021/05/23 00:00:14;;;;;;;12.37;6.58;;;;;;;6.13;85.46;97772.77;1785404;79;21108;-77
2021/05/23 00:02:42;;;;;;;16.30;7.65;;;;;;;6.13;85.35;97762.82;1814229;79;21441;-77
2021/05/23 00:05:10;;;;;;;15.35;9.55;;;;;;;6.13;85.96;97763.36;1814770;78;21040;-77
2021/05/23 00:07:38;;;;;;;12.98;7.67;;;;;;;6.18;85.37;97760.72;1815294;78;20937;-77
2021/05/23 00:10:05;;;;;;;16.45;8.18;;;;;;;6.15;86.27;97758.52;1815683;78;21037;-77
2021/05/23 00:12:31;;;;;;;24.98;9.38;;;;;;;6.12;85.25;97763.09;1814693;79;21059;-77
2021/05/23 00:14:57;;;;;;;15.48;8.13;;;;;;;6.13;84.65;97776.81;1814935;78;20845;-77
2021/05/23 00:17:23;;;;;;;18.17;8.85;;;;;;;6.00;85.83;97770.53;1814785;79;21452;-77
2021/05/23 00:19:49;;;;;;;18.52;8.85;;;;;;;5.99;85.37;97771.59;1814821;79;20933;-77
2021/05/23 00:22:15;;;;;;;13.03;8.80;;;;;;;5.93;86.81;97780.95;1785391;79;20885;-77
2021/05/23 00:24:41;;;;;;;12.30;7.20;;;;;;;5.94;85.39;97777.20;1815007;79;21047;-77
2021/05/23 00:27:07;;;;;;;12.37;8.00;;;;;;;6.01;87.09;97776.99;1785477;79;20873;-78
2021/05/23 00:29:33;;;;;;;12.98;7.60;;;;;;;6.06;85.80;97781.59;1814852;78;21012;-77
2021/05/23 00:31:59;;;;;;;11.18;6.70;;;;;;;6.03;86.15;97779.42;1814952;79;21103;-77
2021/05/23 00:34:25;;;;;;;11.50;6.65;;;;;;;5.98;87.02;97778.02;1814851;78;21405;-78
2021/05/23 00:36:53;;;;;;;13.80;6.80;;;;;;;5.91;86.45;97774.22;1814732;79;21169;-77
2021/05/23 00:39:19;;;;;;;8.58;5.47;;;;;;;5.86;84.81;97766.88;1814911;79;20968;-77
2021/05/23 00:41:45;;;;;;;12.73;6.30;;;;;;;5.87;85.79;97771.18;1785541;79;20905;-77
2021/05/23 00:44:11;;;;;;;10.38;6.90;;;;;;;5.93;85.37;97758.09;1814885;79;21039;-77
2021/05/23 00:46:37;;;;;;;11.40;7.05;;;;;;;5.94;86.07;97770.47;1785852;79;20948;-77
2021/05/23 00:49:03;;;;;;;11.10;7.70;;;;;;;5.98;85.92;97765.91;1786053;79;21472;-77
2021/05/23 00:51:29;;;;;;;10.50;7.05;;;;;;;5.90;86.19;97762.66;1814994;78;21534;-77
2021/05/23 00:53:55;;;;;;;13.22;7.33;;;;;;;5.84;85.56;97759.60;1814962;79;20897;-77
2021/05/23 00:56:21;;;;;;;9.08;5.97;;;;;;;5.88;86.83;97766.61;1815045;79;20944;-78
2021/05/23 00:58:47;;;;;;;10.72;5.62;;;;;;;5.79;87.11;97760.88;1815126;78;21020;-77
2021/05/23 01:01:36;;;;;;;9.38;5.95;;;;;;;5.81;85.40;97756.09;1815042;78;21076;-77
2021/05/23 01:04:02;;;;;;;11.05;5.45;;;;;;;5.76;86.56;97767.31;1815136;79;21444;-77
2021/05/23 01:06:28;;;;;;;10.00;6.25;;;;;;;5.79;87.08;97772.17;1785628;79;21048;-77
2021/05/23 01:08:59;;;;;;;12.10;7.50;;;;;;;5.82;85.19;97773.03;1814896;79;20961;-77
2021/05/23 01:11:34;;;;;;;16.35;6.97;;;;;;;5.79;88.18;97770.30;1812359;78;20862;-77
2021/05/23 01:14:20;;;;;;;13.15;6.92;;;;;;;5.86;87.53;97767.41;1815151;79;21238;-77
2021/05/23 01:16:49;;;;;;;11.78;5.10;;;;;;;5.92;85.38;97776.65;1785819;79;20981;-78
2021/05/23 01:19:42;;;;;;;11.28;6.55;;;;;;;5.86;84.77;97772.78;1814695;78;20957;-77
2021/05/23 01:22:29;;;;;;;12.47;6.80;;;;;;;5.77;85.63;97771.09;1814790;79;20921;-78
2021/05/23 01:25:18;;;;;;;10.70;7.37;;;;;;;5.81;85.50;97770.03;1815139;79;20878;-77
2021/05/23 01:27:45;;;;;;;11.65;6.17;;;;;;;5.80;87.61;97768.42;1812526;79;21054;-78
2021/05/23 01:30:27;;;;;;;10.85;5.25;;;;;;;5.88;86.47;97770.64;1786260;79;20968;-78
2021/05/23 01:32:57;;;;;;;11.03;5.72;;;;;;;5.90;86.84;97768.03;1787886;79;20929;-78
2021/05/23 01:35:33;;;;;;;11.08;5.65;;;;;;;5.88;87.05;97767.95;1815072;78;21001;-78
2021/05/23 01:38:00;;;;;;;7.58;5.05;;;;;;;5.84;86.14;97765.52;1815007;79;21124;-77
2021/05/23 01:40:29;;;;;;;8.15;4.53;;;;;;;5.79;85.19;97760.08;1815013;78;21088;-78
2021/05/23 01:42:55;;;;;;;7.80;4.12;;;;;;;5.65;85.76;97761.04;1815235;78;20925;-78
2021/05/23 01:45:21;;;;;;;11.43;4.42;;;;;;;5.55;86.84;97764.41;1815390;79;20865;-78
2021/05/23 01:47:47;;;;;;;6.92;4.78;;;;;;;5.55;87.46;97771.12;1815144;79;20845;-78
2021/05/23 01:50:13;;;;;;;8.10;4.22;;;;;;;5.60;86.97;97773.07;1815194;79;20916;-78
2021/05/23 01:52:49;;;;;;;7.47;4.75;;;;;;;5.56;87.23;97771.97;1786619;79;21504;-78
2021/05/23 01:55:15;;;;;;;11.57;4.80;;;;;;;5.53;88.04;97775.95;1815215;79;21424;-78
2021/05/23 01:57:42;;;;;;;9.98;5.17;;;;;;;5.57;87.72;97776.28;1815286;78;20893;-77
2021/05/23 02:00:18;;;;;;;7.00;4.75;;;;;;;5.56;87.73;97779.50;1814955;79;21032;-77
2021/05/23 02:02:44;;;;;;;7.90;3.80;;;;;;;5.58;86.94;97790.80;1815650;78;21024;-77
2021/05/23 02:05:11;;;;;;;7.55;4.37;;;;;;;5.53;85.28;97788.58;1815193;79;21496;-77
2021/05/23 02:07:37;;;;;;;10.82;6.45;;;;;;;5.44;87.65;97784.19;1815376;79;20945;-78
2021/05/23 02:10:10;;;;;;;9.43;4.50;;;;;;;5.43;88.70;97783.10;1815033;79;21025;-78
2021/05/23 02:12:36;;;;;;;8.03;5.08;;;;;;;5.45;86.43;97790.37;1814888;78;20984;-78
2021/05/23 02:15:06;;;;;;;12.78;5.17;;;;;;;5.48;87.28;97787.20;1815085;79;20880;-77
2021/05/23 02:17:36;;;;;;;8.30;5.50;;;;;;;5.45;88.16;97795.75;1815189;79;21084;-77
2021/05/23 02:20:10;;;;;;;7.60;3.58;;;;;;;5.49;88.24;97791.52;1814827;79;20957;-77
2021/05/23 02:22:42;;;;;;;5.83;3.70;;;;;;;5.50;86.55;97783.19;1813624;79;20957;-77
2021/05/23 02:25:09;;;;;;;6.03;4.25;;;;;;;5.44;85.76;97792.25;1814826;79;20936;-77
2021/05/23 02:27:43;;;;;;;7.78;3.92;;;;;;;5.37;86.21;97785.72;1814953;79;20984;-77
2021/05/23 02:30:14;;;;;;;4.70;3.25;;;;;;;5.34;85.42;97793.48;1815143;79;21651;-77
2021/05/23 02:32:40;;;;;;;7.97;4.22;;;;;;;5.17;85.08;97785.50;1815024;78;20953;-77
2021/05/23 02:35:07;;;;;;;7.65;4.25;;;;;;;5.09;87.72;97800.17;1786723;79;20968;-77
2021/05/23 02:37:33;;;;;;;8.88;4.28;;;;;;;5.09;86.96;97796.67;1815320;79;20976;-77
2021/05/23 02:40:03;;;;;;;5.58;3.98;;;;;;;5.10;88.27;97792.39;1814937;79;21508;-77
2021/05/23 02:42:29;;;;;;;5.75;3.42;;;;;;;5.15;88.14;97797.03;1823057;78;21246;-77
2021/05/23 02:44:55;;;;;;;5.97;3.90;;;;;;;5.17;88.32;97798.92;1823754;78;20904;-77
2021/05/23 02:47:21;;;;;;;8.30;4.00;;;;;;;5.21;86.97;97801.91;1824266;78;20893;-77
2021/05/23 02:49:47;;;;;;;5.62;3.75;;;;;;;5.21;86.16;97805.44;1823899;78;20880;-77
2021/05/23 02:52:13;;;;;;;8.15;4.62;;;;;;;5.17;85.93;97813.70;1823834;78;20947;-77
2021/05/23 02:54:39;;;;;;;6.42;4.53;;;;;;;5.14;86.22;97816.09;1823811;78;20963;-77
2021/05/23 02:57:06;;;;;;;7.62;4.85;;;;;;;5.10;86.18;97819.25;1823898;78;21143;-76
2021/05/23 02:59:32;;;;;;;9.65;5.53;;;;;;;5.14;86.01;97832.20;1823766;78;22031;-77
2021/05/23 03:01:58;;;;;;;9.45;4.42;;;;;;;5.16;86.26;97836.25;1824162;78;21042;-77
2021/05/23 03:04:24;;;;;;;9.50;5.40;;;;;;;5.17;86.23;97833.84;1823768;78;20933;-77
2021/05/23 03:06:50;;;;;;;7.67;4.12;;;;;;;5.13;86.16;97834.08;1823981;78;21166;-77
2021/05/23 03:09:16;;;;;;;10.35;4.75;;;;;;;5.09;85.24;97829.72;1823917;78;20959;-77
2021/05/23 03:11:43;;;;;;;8.53;4.53;;;;;;;5.06;87.39;97833.45;1823886;78;21565;-76
2021/05/23 03:14:10;;;;;;;6.55;4.40;;;;;;;5.12;86.48;97838.33;1823747;78;21087;-77
2021/05/23 03:16:37;;;;;;;7.78;4.62;;;;;;;5.11;87.19;97842.89;1823858;78;21500;-77
2021/05/23 03:19:03;;;;;;;16.45;4.45;;;;;;;5.17;86.95;97839.22;1823685;78;21226;-77
2021/05/23 03:21:30;;;;;;;9.98;4.08;;;;;;;5.21;87.55;97834.15;1823808;78;21432;-77
2021/05/23 03:23:56;;;;;;;12.05;4.50;;;;;;;5.30;86.80;97832.14;1823708;78;20956;-77
2021/05/23 03:26:22;;;;;;;8.13;4.10;;;;;;;5.42;86.94;97821.26;1823887;78;21015;-77
2021/05/23 03:28:48;;;;;;;7.15;3.60;;;;;;;5.55;88.35;97822.73;1823880;78;21365;-77
2021/05/23 03:31:14;;;;;;;7.50;3.58;;;;;;;5.65;87.27;97826.91;1823833;78;21698;-77
2021/05/23 03:33:40;;;;;;;6.10;3.40;;;;;;;5.72;87.37;97833.40;1796122;78;20916;-77
2021/05/23 03:36:06;;;;;;;6.35;3.47;;;;;;;5.76;86.90;97829.97;1823801;78;21043;-77
2021/05/23 03:38:32;;;;;;;8.28;4.45;;;;;;;5.84;86.94;97836.77;1823903;78;21000;-77
2021/05/23 03:40:58;;;;;;;9.08;3.92;;;;;;;5.91;86.56;97834.73;1823792;78;21518;-77
2021/05/23 03:43:24;;;;;;;6.95;3.70;;;;;;;5.96;86.48;97829.38;1823784;78;21821;-77
2021/05/23 03:45:50;;;;;;;6.15;4.17;;;;;;;5.99;86.24;97826.20;1824829;78;20858;-77
2021/05/23 03:48:17;;;;;;;8.88;5.20;;;;;;;6.03;86.29;97818.42;1827933;78;20857;-77
2021/05/23 03:50:43;;;;;;;12.78;6.78;;;;;;;6.07;86.41;97824.94;1827645;78;20885;-77
2021/05/23 03:53:09;;;;;;;11.57;5.50;;;;;;;6.08;85.69;97820.64;1827893;78;20849;-77
2021/05/23 03:55:35;;;;;;;8.88;5.85;;;;;;;6.07;85.30;97820.36;1800203;78;21046;-77
2021/05/23 03:58:03;;;;;;;7.62;4.30;;;;;;;6.08;85.10;97823.86;1827913;78;20917;-76
2021/05/23 04:00:29;;;;;;;8.80;4.65;;;;;;;6.11;85.30;97822.00;1799175;78;20973;-77
2021/05/23 04:02:56;;;;;;;7.35;4.17;;;;;;;6.17;85.69;97829.86;1827906;77;20932;-76
2021/05/23 04:05:23;;;;;;;7.35;4.00;;;;;;;6.27;85.57;97826.98;1828015;78;20865;-77
2021/05/23 04:07:50;;;;;;;7.22;4.20;;;;;;;6.43;85.17;97834.92;1827710;78;21089;-77
2021/05/23 04:10:19;;;;;;;8.25;4.45;;;;;;;6.59;85.12;97824.28;1827880;78;20886;-78
2021/05/23 04:12:47;;;;;;;9.43;4.30;;;;;;;6.70;84.71;97821.92;1828017;78;20850;-78
2021/05/23 04:15:14;;;;;;;6.70;3.90;;;;;;;6.67;83.81;97824.61;1827904;78;20992;-77
2021/05/23 04:17:40;;;;;;;7.97;4.30;;;;;;;6.67;83.91;97823.27;1800489;78;21023;-77
2021/05/23 04:20:09;;;;;;;8.83;4.50;;;;;;;6.74;83.90;97814.94;1827327;78;20913;-77
2021/05/23 04:22:35;;;;;;;6.37;4.37;;;;;;;6.79;84.59;97818.48;1800704;78;20976;-77
2021/05/23 04:25:02;;;;;;;8.63;3.92;;;;;;;6.92;84.26;97825.30;1827093;78;20924;-77
2021/05/23 04:27:29;;;;;;;10.43;4.22;;;;;;;7.03;83.58;97823.47;1825787;78;20889;-77
2021/05/23 04:29:55;;;;;;;5.85;3.80;;;;;;;7.08;83.98;97826.17;1825462;78;20873;-77
2021/05/23 04:32:22;;;;;;;9.18;4.78;;;;;;;7.21;83.45;97825.72;1825213;78;20952;-78
2021/05/23 04:34:48;;;;;;;6.87;3.98;;;;;;;7.38;83.90;97827.41;1824452;78;20901;-77
2021/05/23 04:37:15;;;;;;;6.17;3.90;;;;;;;7.49;83.67;97819.08;1823961;78;20972;-77
2021/05/23 04:39:43;;;;;;;7.90;4.30;;;;;;;7.60;83.40;97814.53;1824001;78;21492;-77
2021/05/23 04:42:09;;;;;;;8.40;4.30;;;;;;;7.77;83.36;97817.81;1819011;78;20953;-76
2021/05/23 04:44:35;;;;;;;7.37;5.00;;;;;;;8.04;83.44;97817.62;1785453;79;21055;-76
2021/05/23 04:47:01;;;;;;;6.72;4.37;;;;;;;8.33;83.11;97811.69;1814936;78;21470;-76
2021/05/23 04:49:27;;;;;;;9.05;4.75;;;;;;;8.57;82.73;97810.64;1815031;79;21326;-76
2021/05/23 04:51:53;;;;;;;10.45;5.58;;;;;;;8.80;82.42;97815.99;1815037;79;21554;-77
2021/05/23 04:54:20;;;;;;;8.80;5.10;;;;;;;9.03;82.03;97816.22;1815360;79;20988;-77
2021/05/23 04:56:46;;;;;;;8.60;5.50;;;;;;;9.18;81.44;97812.66;1814947;79;21259;-77
2021/05/23 04:59:11;;;;;;;11.93;5.05;;;;;;;9.37;80.36;97812.05;1815003;79;20842;-77
2021/05/23 05:01:37;;;;;;;8.75;4.25;;;;;;;9.58;80.16;97810.35;1815447;79;20901;-77
2021/05/23 05:04:04;;;;;;;8.18;3.92;;;;;;;9.75;79.92;97811.34;1815062;78;21039;-77
2021/05/23 05:06:30;;;;;;;7.95;4.37;;;;;;;9.98;79.95;97805.77;1815052;79;21060;-77
2021/05/23 05:08:56;;;;;;;5.58;3.65;;;;;;;10.10;79.68;97813.02;1814927;79;21915;-77
2021/05/23 05:11:21;;;;;;;8.03;3.90;;;;;;;10.19;78.85;97814.59;1814812;79;20870;-77
2021/05/23 05:13:47;;;;;;;6.83;4.80;;;;;;;10.32;79.32;97814.50;1815085;79;20916;-77
2021/05/23 05:16:13;;;;;;;7.03;5.30;;;;;;;10.57;79.15;97825.14;1785282;79;20992;-77
2021/05/23 05:18:39;;;;;;;6.95;4.70;;;;;;;10.57;79.15;97825.14;1815420;78;20994;-77
2021/05/23 05:21:06;;;;;;;6.40;4.30;;;;;;;10.62;78.52;97825.10;1814830;79;20938;-77
2021/05/23 05:23:32;;;;;;;7.25;4.83;;;;;;;10.66;78.26;97824.78;1785373;79;20985;-77
2021/05/23 05:26:00;;;;;;;8.13;4.67;;;;;;;10.86;78.41;97814.87;1814894;78;20953;-77
2021/05/23 05:28:25;;;;;;;8.53;4.60;;;;;;;11.08;77.57;97818.42;1814700;79;20963;-77
2021/05/23 05:30:52;;;;;;;7.78;4.30;;;;;;;11.21;77.01;97820.46;1815004;78;20857;-77
2021/05/23 05:33:17;;;;;;;6.15;4.03;;;;;;;11.41;76.23;97813.43;1815083;79;21091;-77
2021/05/23 05:35:43;;;;;;;5.90;3.83;;;;;;;11.61;76.77;97808.84;1814934;78;20881;-77
2021/05/23 05:38:11;;;;;;;7.35;3.72;;;;;;;11.70;75.91;97803.02;1814863;79;20952;-77
2021/05/23 05:40:37;;;;;;;8.20;4.55;;;;;;;11.94;75.44;97807.07;1814977;79;21388;-76
2021/05/23 05:43:03;;;;;;;6.37;4.28;;;;;;;12.01;73.37;97806.97;1814793;79;21056;-76
2021/05/23 05:45:29;;;;;;;13.08;4.70;;;;;;;12.11;72.80;97812.24;1814931;79;21021;-76
2021/05/23 05:47:55;;;;;;;7.05;3.90;;;;;;;12.27;71.90;97805.22;1814852;79;20937;-77
2021/05/23 05:50:21;;;;;;;7.90;4.30;;;;;;;12.40;71.80;97805.84;1815368;79;20953;-77
2021/05/23 05:52:47;;;;;;;5.28;3.92;;;;;;;12.51;71.31;97801.05;1815451;78;20953;-77
2021/05/23 05:55:13;;;;;;;5.67;3.80;;;;;;;12.62;71.67;97807.91;1815097;79;20877;-77
2021/05/23 05:57:40;;;;;;;6.45;3.30;;;;;;;12.73;71.01;97810.70;1815085;78;21075;-77
2021/05/23 06:00:07;;;;;;;7.10;3.92;;;;;;;12.82;70.71;97810.82;1814925;79;21496;-77
2021/05/23 06:02:33;;;;;;;7.37;4.05;;;;;;;12.89;70.52;97808.52;1814994;79;21417;-77
2021/05/23 06:04:59;;;;;;;8.68;5.10;;;;;;;13.00;69.83;97804.53;1814943;79;20992;-77
2021/05/23 06:07:25;;;;;;;7.37;4.10;;;;;;;13.06;69.82;97810.11;1814861;78;20989;-77
2021/05/23 06:09:51;;;;;;;6.92;4.35;;;;;;;13.13;69.06;97808.36;1815473;78;21166;-77
2021/05/23 06:12:18;;;;;;;5.78;4.00;;;;;;;13.16;69.77;97803.14;1815080;79;21381;-77
2021/05/23 06:14:45;;;;;;;8.55;4.47;;;;;;;13.29;70.18;97800.74;1785440;79;20941;-77
2021/05/23 06:17:11;;;;;;;10.15;6.80;;;;;;;13.38;70.14;97804.38;1814904;79;21413;-76
2021/05/23 06:19:37;;;;;;;10.75;7.37;;;;;;;13.57;70.50;97812.42;1785971;79;21396;-76
2021/05/23 06:22:03;;;;;;;10.20;5.08;;;;;;;13.73;69.73;97804.98;1814924;79;21205;-77
2021/05/23 06:24:29;;;;;;;5.10;2.95;;;;;;;13.73;69.70;97808.27;1814846;79;21008;-77
2021/05/23 06:26:55;;;;;;;4.70;2.90;;;;;;;13.82;69.65;97806.44;1815007;79;20889;-77
2021/05/23 06:29:21;;;;;;;7.53;4.08;;;;;;;13.99;69.33;97806.59;1815004;79;20940;-77
2021/05/23 06:31:47;;;;;;;14.47;10.85;;;;;;;14.00;69.13;97805.48;1815018;79;21496;-77
2021/05/23 06:34:13;;;;;;;7.90;4.80;;;;;;;14.00;68.97;97810.12;1773919;80;21115;-77
2021/05/23 06:36:39;;;;;;;7.33;5.10;;;;;;;14.11;68.17;97804.72;1814748;79;20948;-77
2021/05/23 06:39:05;;;;;;;7.97;3.80;;;;;;;14.10;68.43;97808.56;1814961;79;20909;-77
2021/05/23 06:41:31;;;;;;;10.45;3.30;;;;;;;14.21;68.47;97806.39;1814907;79;20933;-77
2021/05/23 06:43:57;;;;;;;5.05;3.62;;;;;;;14.37;68.70;97811.73;1812985;79;20940;-76
2021/05/23 06:46:23;;;;;;;6.03;3.10;;;;;;;14.67;69.24;97809.64;1812828;79;21098;-76
2021/05/23 06:48:49;;;;;;;6.55;4.10;;;;;;;15.14;68.67;97811.44;1812807;79;20971;-77
2021/05/23 06:51:15;;;;;;;6.47;3.27;;;;;;;15.49;66.46;97812.94;1813232;79;20864;-77
2021/05/23 06:53:42;;;;;;;4.80;2.70;;;;;;;15.50;65.58;97807.72;1813028;79;20919;-77
2021/05/23 06:56:07;;;;;;;11.22;3.62;;;;;;;15.60;64.29;97803.33;1812832;79;20960;-77
2021/05/23 06:58:33;;;;;;;7.15;2.83;;;;;;;15.70;64.48;97803.61;1787712;79;21097;-77
2021/05/23 07:00:59;;;;;;;3.42;2.15;;;;;;;15.88;61.18;97796.25;1812908;79;20876;-77
2021/05/23 07:03:25;;;;;;;6.25;3.20;;;;;;;15.87;60.75;97794.65;1812751;79;21444;-77
2021/05/23 07:05:51;;;;;;;4.03;2.52;;;;;;;15.78;60.74;97787.24;1812917;79;20857;-77
2021/05/23 07:08:18;;;;;;;5.40;3.67;;;;;;;15.83;60.62;97783.57;1813137;79;20916;-76
2021/05/23 07:10:44;;;;;;;8.75;4.72;;;;;;;15.84;60.80;97785.17;1812929;79;21341;-77
2021/05/23 07:13:10;;;;;;;5.15;3.67;;;;;;;15.90;61.17;97793.47;1812734;79;21012;-77
2021/05/23 07:15:36;;;;;;;4.90;2.92;;;;;;;15.99;60.18;97786.64;1812773;79;20943;-77
2021/05/23 07:18:02;;;;;;;6.58;3.87;;;;;;;16.08;59.11;97789.63;1813015;79;20947;-77
2021/05/23 07:20:28;;;;;;;10.15;3.98;;;;;;;16.06;59.39;97792.41;1812856;79;20916;-77
2021/05/23 07:22:54;;;;;;;6.50;4.40;;;;;;;16.27;59.41;97794.77;1812805;79;21740;-77
2021/05/23 07:25:21;;;;;;;8.90;5.72;;;;;;;16.60;58.81;97798.36;1812803;79;20876;-76
2021/05/23 07:27:47;;;;;;;8.80;4.80;;;;;;;16.83;58.20;97801.70;1812956;79;20960;-76
2021/05/23 07:30:14;;;;;;;6.03;3.27;;;;;;;17.09;57.83;97796.16;1812783;79;20966;-76
2021/05/23 07:32:40;;;;;;;5.08;3.22;;;;;;;17.22;57.56;97792.42;1813038;79;21031;-76
2021/05/23 07:35:07;;;;;;;11.40;4.78;;;;;;;17.61;57.73;97795.39;1812764;79;21614;-76
2021/05/23 07:37:33;;;;;;;6.80;4.08;;;;;;;18.24;56.20;97792.73;1812713;79;20932;-76
2021/05/23 07:39:59;;;;;;;4.87;2.72;;;;;;;18.75;52.83;97787.38;1812774;79;21070;-76
2021/05/23 07:42:25;;;;;;;5.58;2.20;;;;;;;18.64;52.04;97788.91;1813265;79;21001;-76
2021/05/23 07:44:51;;;;;;;5.83;1.95;;;;;;;18.56;52.84;97787.86;1814976;79;20980;-76
2021/05/23 07:47:17;;;;;;;4.22;2.62;;;;;;;18.56;51.97;97785.11;1815109;79;21122;-76
2021/05/23 07:49:43;;;;;;;4.00;2.67;;;;;;;18.75;51.97;97784.63;1815431;79;20967;-76
2021/05/23 07:52:11;;;;;;;5.67;2.98;;;;;;;19.18;51.42;97789.41;1814981;79;20849;-76
2021/05/23 07:54:38;;;;;;;6.60;3.17;;;;;;;19.72;49.07;97783.95;1815704;78;21048;-76
2021/05/23 07:57:05;;;;;;;3.67;1.40;;;;;;;20.18;48.40;97774.14;1814903;79;21095;-76
2021/05/23 07:59:31;;;;;;;4.45;1.77;;;;;;;20.98;44.85;97771.85;1815076;78;21111;-76
2021/05/23 08:01:57;;;;;;;4.37;2.25;;;;;;;21.00;45.30;97773.67;1814916;79;21372;-77
2021/05/23 08:04:23;;;;;;;4.33;2.40;;;;;;;21.25;45.97;97773.73;1815347;79;20909;-77
2021/05/23 08:06:49;;;;;;;3.70;2.40;;;;;;;21.53;45.23;97776.98;1814920;79;20877;-77
2021/05/23 08:09:15;;;;;;;2.77;1.67;;;;;;;21.84;43.71;97769.25;1814984;79;21497;-77
2021/05/23 08:11:41;;;;;;;5.87;2.37;;;;;;;22.20;44.76;97767.52;1815088;78;21089;-77
2021/05/23 08:14:08;;;;;;;3.87;2.22;;;;;;;23.05;44.36;97762.89;1814851;78;21556;-77
2021/05/23 08:16:35;;;;;;;7.40;2.80;;;;;;;23.72;41.07;97765.20;1815110;78;20965;-77
2021/05/23 08:19:02;;;;;;;7.15;2.70;;;;;;;23.77;41.49;97760.75;1815091;78;21505;-77
2021/05/23 08:21:28;;;;;;;3.25;1.60;;;;;;;24.00;40.06;97759.86;1815321;79;20857;-77
2021/05/23 08:23:54;;;;;;;5.53;2.20;;;;;;;24.29;38.33;97761.85;1815094;78;21091;-77
2021/05/23 08:26:20;;;;;;;3.12;1.30;;;;;;;24.32;37.62;97758.94;1814936;79;20853;-77
2021/05/23 08:28:46;;;;;;;1.98;1.42;;;;;;;24.78;37.31;97760.85;1814955;79;20889;-77
2021/05/23 08:31:12;;;;;;;3.70;2.15;;;;;;;25.49;37.46;97760.77;1814916;79;20885;-77
2021/05/23 08:33:38;;;;;;;3.30;1.40;;;;;;;25.96;36.24;97757.15;1815075;79;20951;-77
2021/05/23 08:36:06;;;;;;;2.35;1.05;;;;;;;26.08;33.80;97758.23;1785891;79;22635;-77
2021/05/23 08:38:32;;;;;;;3.47;2.10;;;;;;;25.46;30.64;97756.77;1815155;79;20874;-77
2021/05/23 08:40:58;;;;;;;1.75;0.98;;;;;;;24.42;32.89;97754.11;1814995;79;21385;-77
2021/05/23 08:43:26;;;;;;;13.90;1.17;;;;;;;23.56;33.15;97770.84;1819620;78;20982;-77
2021/05/23 08:45:52;;;;;;;2.27;1.65;;;;;;;23.30;30.78;97762.52;1824031;78;21012;-77
2021/05/23 08:48:19;;;;;;;3.83;2.40;;;;;;;22.74;31.87;97761.71;1823784;78;21749;-77
2021/05/23 08:50:46;;;;;;;5.53;1.95;;;;;;;22.43;32.14;97761.28;1796304;78;21400;-77
2021/05/23 08:53:12;;;;;;;2.12;1.35;;;;;;;22.32;32.25;97764.42;1823899;78;21456;-77
2021/05/23 08:55:39;;;;;;;3.98;1.60;;;;;;;21.95;32.82;97762.80;1823900;78;21408;-77
2021/05/23 08:58:05;;;;;;;2.47;1.32;;;;;;;21.71;32.01;97765.83;1823749;78;20984;-77
2021/05/23 09:00:31;;;;;;;3.75;1.60;;;;;;;21.33;32.57;97767.27;1824282;78;20972;-77
2021/05/23 09:03:19;;;;;;;3.40;1.20;;;;;;;21.09;33.29;97770.16;1823821;78;20885;-77
2021/05/23 09:05:50;;;;;;;6.83;3.50;;;;;;;20.90;32.41;97763.98;1822789;78;20959;-77
2021/05/23 09:08:21;;;;;;;7.60;1.37;;;;;;;20.66;34.02;97769.03;1763837;78;20952;-76
2021/05/23 09:10:49;;;;;;;6.58;1.67;;;;;;;20.39;33.92;97764.31;1823884;78;20948;-77
2021/05/23 09:13:33;;;;;;;3.12;1.07;;;;;;;20.39;35.08;97776.12;1824035;78;20956;-77
2021/05/23 09:16:07;;;;;;;3.52;1.20;;;;;;;20.52;35.42;97769.46;1822770;78;21621;-76
2021/05/23 09:18:56;;;;;;;3.08;1.42;;;;;;;20.56;35.52;97762.09;1823912;78;21451;-76
2021/05/23 09:21:34;;;;;;;2.10;0.90;;;;;;;20.73;35.52;97763.73;1823980;78;21008;-76
2021/05/23 09:24:03;;;;;;;2.98;0.90;;;;;;;20.82;36.00;97761.61;1824102;78;20980;-76
2021/05/23 09:26:40;;;;;;;3.65;0.93;;;;;;;20.95;35.70;97764.31;1823819;78;21063;-76
2021/05/23 09:29:15;;;;;;;1.80;1.00;;;;;;;21.01;34.61;97768.38;1823740;78;21460;-76
2021/05/23 09:31:45;;;;;;;3.02;1.45;;;;;;;21.02;34.86;97765.84;1823851;78;20974;-76
2021/05/23 09:34:19;;;;;;;1.90;0.88;;;;;;;21.10;34.46;97768.43;1823812;78;21016;-76
2021/05/23 09:36:45;;;;;;;6.00;0.98;;;;;;;21.26;34.76;97767.64;1798398;78;20941;-75
2021/05/23 09:39:11;;;;;;;1.47;0.80;;;;;;;21.45;34.27;97769.16;1824043;78;20938;-76
2021/05/23 09:41:40;;;;;;;2.40;1.30;;;;;;;21.45;34.33;97771.08;1824111;78;20929;-75
2021/05/23 09:44:18;;;;;;;3.87;1.00;;;;;;;21.39;34.96;97765.86;1817722;78;20901;-75
2021/05/23 09:47:04;;;;;;;7.95;1.37;;;;;;;21.53;33.72;97760.45;1815056;78;20933;-76
2021/05/23 09:49:40;;;;;;;2.67;0.75;;;;;;;21.56;33.64;97768.02;1814978;78;21504;-77
2021/05/23 09:52:03;;;;;;;2.65;0.90;;;;;;;21.86;33.27;97768.30;1813296;79;21546;-76
2021/05/23 09:54:32;;;;;;;1.95;1.07;;;;;;;22.45;32.77;97763.09;1814932;78;21476;-76
2021/05/23 09:56:58;;;;;;;4.33;0.95;;;;;;;22.26;32.47;97771.38;1812901;79;20813;-76
2021/05/23 09:59:27;;;;;;;3.05;1.00;;;;;;;21.93;32.90;97767.09;1786035;79;20913;-76
2021/05/23 10:02:08;;;;;;;3.22;1.60;;;;;;;22.11;31.72;97768.31;1814501;79;20932;-76
2021/05/23 10:04:36;;;;;;;4.72;2.10;;;;;;;22.29;30.94;97767.89;1814298;79;21747;-76
2021/05/23 10:07:08;;;;;;;3.10;1.60;;;;;;;21.93;31.82;97776.16;1814702;79;21005;-76
2021/05/23 10:09:35;;;;;;;4.65;0.90;;;;;;;21.91;32.46;97773.55;1814536;78;20977;-77
2021/05/23 10:12:01;;;;;;;4.37;2.42;;;;;;;22.23;31.78;97774.30;1814976;78;21444;-77
2021/05/23 10:14:27;;;;;;;3.17;1.35;;;;;;;22.17;30.46;97775.73;1814932;79;21500;-77
2021/05/23 10:16:53;;;;;;;4.12;2.52;;;;;;;22.47;30.01;97773.19;1814978;79;21121;-77
2021/05/23 10:19:24;;;;;;;1.92;1.02;;;;;;;22.14;30.96;97775.09;1814928;79;20976;-77
2021/05/23 10:21:51;;;;;;;2.27;1.00;;;;;;;21.99;30.75;97774.52;1813615;79;21448;-77
2021/05/23 10:24:31;;;;;;;4.80;1.55;;;;;;;21.57;30.42;97775.13;1759811;79;21452;-77
2021/05/23 10:27:00;;;;;;;2.17;1.00;;;;;;;21.45;31.04;97777.42;1785733;79;21000;-76
2021/05/23 10:29:26;;;;;;;5.20;1.75;;;;;;;21.29;31.35;97780.75;1814851;79;21197;-77
2021/05/23 10:32:08;;;;;;;5.15;1.15;;;;;;;21.12;31.71;97774.98;1814891;78;20909;-77
2021/05/23 10:34:37;;;;;;;2.08;1.05;;;;;;;20.94;30.05;97776.48;1814070;79;21436;-76
2021/05/23 10:37:03;;;;;;;2.55;1.15;;;;;;;21.08;31.58;97786.47;1815041;79;21190;-76
2021/05/23 10:39:40;;;;;;;1.85;0.68;;;;;;;21.05;32.17;97781.69;1814891;79;21526;-76
2021/05/23 10:42:07;;;;;;;4.97;1.20;;;;;;;21.20;31.28;97782.86;1813842;79;21588;-76
2021/05/23 10:44:41;;;;;;;3.12;1.20;;;;;;;21.42;31.79;97783.63;1821315;78;21018;-76
2021/05/23 10:47:12;;;;;;;1.95;0.62;;;;;;;21.90;30.46;97778.86;1823719;78;21123;-76
2021/05/23 10:50:00;;;;;;;2.92;0.70;;;;;;;21.86;29.65;97782.09;1823650;78;21488;-76
2021/05/23 10:52:29;;;;;;;2.00;0.98;;;;;;;21.68;29.72;97781.69;1823951;78;20873;-76
2021/05/23 10:55:14;;;;;;;1.95;1.15;;;;;;;21.44;30.07;97777.17;1823711;78;21688;-76
2021/05/23 10:57:46;;;;;;;2.70;1.17;;;;;;;21.40;30.22;97779.05;1823667;78;20988;-77
2021/05/23 11:00:22;;;;;;;2.83;0.90;;;;;;;21.24;30.45;97783.73;1823848;78;20921;-76
2021/05/23 11:02:51;;;;;;;1.22;0.80;;;;;;;21.11;31.83;97786.59;1823802;78;21416;-76
2021/05/23 11:05:23;;;;;;;1.62;0.90;;;;;;;20.74;32.71;97792.05;1824381;78;20976;-76
2021/05/23 11:07:57;;;;;;;3.67;1.17;;;;;;;20.77;33.32;97789.42;1823785;78;21090;-77
2021/05/23 11:10:29;;;;;;;3.02;1.00;;;;;;;20.50;34.44;97795.13;1823577;78;20920;-76
2021/05/23 11:12:59;;;;;;;3.62;1.50;;;;;;;20.46;35.09;97801.13;1823756;78;20929;-76
2021/05/23 11:15:26;;;;;;;1.57;1.05;;;;;;;19.95;36.36;97813.14;1823193;78;20997;-76
2021/05/23 11:17:54;;;;;;;2.02;1.22;;;;;;;19.25;38.36;97815.75;1796017;78;20990;-76
2021/05/23 11:20:24;;;;;;;2.42;1.10;;;;;;;18.39;40.37;97819.55;1823795;78;21464;-76
2021/05/23 11:22:59;;;;;;;3.65;0.90;;;;;;;17.98;41.12;97828.56;1822962;78;20988;-76
2021/05/23 11:25:25;;;;;;;1.90;1.20;;;;;;;18.17;40.32;97830.28;1823634;78;20964;-76
2021/05/23 11:28:01;;;;;;;2.58;1.07;;;;;;;17.59;42.55;97839.30;1823570;78;20963;-76
2021/05/23 11:30:33;;;;;;;2.70;1.20;;;;;;;17.34;42.94;97850.59;1823791;78;21016;-75
2021/05/23 11:33:01;;;;;;;3.20;1.20;;;;;;;16.86;42.60;97847.03;1822464;78;21248;-76
2021/05/23 11:35:27;;;;;;;2.90;1.30;;;;;;;16.77;43.03;97848.17;1823783;78;20897;-76
2021/05/23 11:37:55;;;;;;;4.25;1.60;;;;;;;16.51;43.77;97854.44;1796167;78;20905;-76
2021/05/23 11:40:21;;;;;;;3.08;1.62;;;;;;;16.34;43.70;97855.23;1823829;78;21074;-76